Главная страница
METAR-TAF:

METAR-TAF

Аэропорты :

Уппсала, Швеция

широта: 59-53N, долгота: 017-36E, высота над уровнем моря: 21 м

Текущие метеонаблюдения

Эта сводка был подготовлена 17 минут назад, в 23:20 UTC
Ветер 6 Узел от северно-северо-западный
Температура 3°C
Влажность 93%
Давление 1038 hPa
Видимость 10 км и более

METAR: ESCM 172320Z AUTO 34006KT 9999 NCD 03/02 Q1038

Время: 00:37 (23:37 UTC)


TAF: отсутствует

Метеонаблюдения и прогнозы для более 4000 аэропортов (сводки METAR и TAF).

Имеющиеся станции представлены на карте желтыми и красными точками.

Чтобы увидеть название станции, наведите на нее мышь.

Затем щелкните, чтобы увидеть метеонаблюдения и метеопрогнозы.

Управление картой: чтобы увеличить масштаб, щелкните зеленые кнопки с черным крестиком; чтобы уменьшить масштаб, щелкните зеленую кнопку с тире; для просмотра соседних карт щелкайте зеленые стрелки.


METAR-TAF: